Time;durP1;ratioP1;P1;durP2;ratioP2;P2;SDS_P1;SDS_P2;PMS_P1;PMS_P2;Temp;Humidity;BMP_temperature;BMP_pressure;BME280_temperature;BME280_humidity;BME280_pressure;Samples;Min_cycle;Max_cycle;Signal;HPM_P1;HPM_P2
2023/03/16 00:02:20;;;;;;;9.17;7.70;;;;;;;2.28;100.00;96748.75;4955855;28;102297;-62
2023/03/16 00:04:47;;;;;;;10.33;7.80;;;;;;;2.26;100.00;96742.91;4953340;28;101662;-62
2023/03/16 00:07:15;;;;;;;8.97;7.73;;;;;;;2.33;100.00;96741.13;4951656;28;105265;-62
2023/03/16 00:09:42;;;;;;;9.07;7.93;;;;;;;2.32;100.00;96738.69;4952670;28;102674;-62
2023/03/16 00:12:14;;;;;;;8.07;7.27;;;;;;;2.10;100.00;96732.69;4951740;28;102148;-62
2023/03/16 00:14:44;;;;;;;9.20;7.87;;;;;;;2.01;100.00;96738.22;4953023;28;102519;-62
2023/03/16 00:17:17;;;;;;;8.30;7.20;;;;;;;2.18;100.00;96734.34;4952660;28;102495;-62
2023/03/16 00:19:46;;;;;;;8.70;7.73;;;;;;;2.19;100.00;96746.47;4953449;28;101783;-62
2023/03/16 00:22:14;;;;;;;8.80;7.83;;;;;;;2.19;100.00;96747.25;4951500;28;105644;-62
2023/03/16 00:24:43;;;;;;;9.90;8.23;;;;;;;2.12;100.00;96741.16;4955529;28;103028;-62
2023/03/16 00:27:13;;;;;;;9.40;7.70;;;;;;;2.17;100.00;96744.03;4951705;28;104402;-62
2023/03/16 00:29:46;;;;;;;9.63;8.00;;;;;;;2.09;100.00;96738.09;4952554;28;102439;-62
2023/03/16 00:32:15;;;;;;;8.67;7.77;;;;;;;2.20;100.00;96738.38;4951528;28;101930;-62
2023/03/16 00:34:42;;;;;;;11.50;8.03;;;;;;;2.22;100.00;96731.16;4952612;28;102400;-62
2023/03/16 00:37:12;;;;;;;10.47;8.13;;;;;;;2.25;100.00;96719.47;4950837;28;105570;-62
2023/03/16 00:39:40;;;;;;;10.60;8.13;;;;;;;2.32;100.00;96725.56;4951442;28;101839;-62
2023/03/16 00:42:08;;;;;;;9.27;8.23;;;;;;;2.35;100.00;96725.19;4951206;28;105284;-62
2023/03/16 00:44:35;;;;;;;11.80;8.90;;;;;;;2.38;100.00;96730.88;4950859;28;105225;-62
2023/03/16 00:47:03;;;;;;;8.80;7.20;;;;;;;2.37;100.00;96728.44;4954411;28;101714;-62
2023/03/16 00:49:33;;;;;;;10.00;7.83;;;;;;;2.45;100.00;96721.22;4950511;28;105211;-62
2023/03/16 00:52:01;;;;;;;8.20;7.47;;;;;;;2.40;100.00;96723.59;4952540;28;101945;-62
2023/03/16 00:54:31;;;;;;;8.30;7.50;;;;;;;2.53;100.00;96728.16;4952536;28;102914;-62
2023/03/16 00:56:58;;;;;;;10.10;8.33;;;;;;;2.49;100.00;96730.34;4951966;28;103061;-62
2023/03/16 00:59:26;;;;;;;8.27;7.37;;;;;;;2.37;100.00;96728.44;4952151;28;102258;-62
2023/03/16 01:01:53;;;;;;;8.43;7.53;;;;;;;2.44;100.00;96719.59;4951040;28;105184;-62
2023/03/16 01:04:22;;;;;;;8.37;7.53;;;;;;;2.57;100.00;96724.94;4950260;28;105325;-62
2023/03/16 01:06:50;;;;;;;9.50;8.37;;;;;;;2.58;100.00;96721.28;4954295;28;101879;-62
2023/03/16 01:09:17;;;;;;;9.07;8.17;;;;;;;2.58;100.00;96718.66;4951580;28;102614;-62
2023/03/16 01:11:45;;;;;;;8.07;7.37;;;;;;;2.61;100.00;96722.72;4950707;28;101839;-62
2023/03/16 01:14:12;;;;;;;8.70;7.80;;;;;;;2.65;100.00;96721.34;4950812;28;105919;-63
2023/03/16 01:16:44;;;;;;;8.40;7.50;;;;;;;2.68;100.00;96723.59;4950435;28;105138;-62
2023/03/16 01:19:11;;;;;;;9.60;7.87;;;;;;;2.69;100.00;96718.13;4952319;28;101807;-62
2023/03/16 01:21:41;;;;;;;7.80;7.10;;;;;;;2.72;100.00;96722.19;4950847;28;105627;-62
2023/03/16 01:24:10;;;;;;;8.27;7.47;;;;;;;2.67;100.00;96719.34;4950016;28;104695;-62
2023/03/16 01:26:36;;;;;;;7.47;6.77;;;;;;;2.53;100.00;96710.59;4950899;28;101866;-62
2023/03/16 01:29:03;;;;;;;8.27;7.37;;;;;;;2.48;100.00;96709.53;4953435;28;105656;-62
2023/03/16 01:31:30;;;;;;;7.30;6.43;;;;;;;2.47;100.00;96710.53;4950500;28;101820;-62
2023/03/16 01:33:58;;;;;;;8.33;6.80;;;;;;;2.52;100.00;96710.78;4950758;28;104579;-62
2023/03/16 01:36:28;;;;;;;7.30;6.60;;;;;;;2.46;100.00;96704.47;4949854;28;105098;-62
2023/03/16 01:39:02;;;;;;;7.47;6.30;;;;;;;2.41;100.00;96708.69;4950551;28;101924;-64
2023/03/16 01:41:36;;;;;;;7.57;6.83;;;;;;;2.34;100.00;96705.19;4950294;28;105147;-65
2023/03/16 01:44:03;;;;;;;7.23;6.43;;;;;;;2.40;100.00;96702.63;4949625;28;105471;-63
2023/03/16 01:46:30;;;;;;;7.33;6.67;;;;;;;2.41;100.00;96706.06;4950517;28;102132;-62
2023/03/16 01:49:05;;;;;;;7.87;6.93;;;;;;;2.34;100.00;96708.63;4950345;28;104589;-62
2023/03/16 01:51:36;;;;;;;6.90;6.23;;;;;;;2.12;100.00;96701.81;4953208;28;104407;-62
2023/03/16 01:54:14;;;;;;;7.63;6.93;;;;;;;2.01;100.00;96691.03;4951812;28;102699;-62
2023/03/16 01:56:46;;;;;;;7.40;6.70;;;;;;;2.10;100.00;96689.88;4949300;28;105360;-62
2023/03/16 01:59:18;;;;;;;9.00;7.40;;;;;;;2.16;100.00;96694.38;4950291;28;102004;-62
2023/03/16 02:01:47;;;;;;;6.90;6.30;;;;;;;2.19;100.00;96686.91;4950006;28;105252;-62
2023/03/16 02:04:25;;;;;;;8.37;7.57;;;;;;;2.14;100.00;96685.88;4949323;28;105482;-62
2023/03/16 02:06:57;;;;;;;7.90;7.20;;;;;;;2.09;100.00;96683.03;4950225;28;101945;-62
2023/03/16 02:09:26;;;;;;;7.97;7.17;;;;;;;2.18;100.00;96680.06;4949363;28;105544;-62
2023/03/16 02:11:54;;;;;;;11.37;8.00;;;;;;;2.21;100.00;96673.63;4949390;28;105229;-62
2023/03/16 02:14:24;;;;;;;7.77;6.93;;;;;;;2.12;100.00;96682.63;4952937;28;101777;-62
2023/03/16 02:16:52;;;;;;;9.07;7.67;;;;;;;1.96;100.00;96683.72;4949236;28;105612;-62
2023/03/16 02:19:30;;;;;;;8.50;7.60;;;;;;;2.08;100.00;96681.41;4949977;28;101906;-62
2023/03/16 02:22:02;;;;;;;8.43;7.53;;;;;;;2.04;100.00;96674.91;4949726;28;105285;-62
2023/03/16 02:24:33;;;;;;;8.17;7.37;;;;;;;1.92;100.00;96679.84;4949285;28;105054;-62
2023/03/16 02:27:04;;;;;;;8.73;7.93;;;;;;;1.94;100.00;96677.06;4949809;28;102031;-62
2023/03/16 02:30:08;;;;;;;7.97;6.87;;;;;;;1.86;100.00;96683.25;4949715;28;105239;-62
2023/03/16 02:32:46;;;;;;;7.93;7.13;;;;;;;1.83;100.00;96688.88;4949084;28;104839;-62
2023/03/16 02:35:13;;;;;;;8.43;7.57;;;;;;;1.73;100.00;96682.31;4949433;28;101793;-62
2023/03/16 02:37:41;;;;;;;9.93;8.50;;;;;;;1.68;100.00;96685.50;4952197;28;104786;-62
2023/03/16 02:40:22;;;;;;;10.60;7.97;;;;;;;1.80;100.00;96683.22;4951142;28;101817;-62
2023/03/16 02:42:56;;;;;;;8.57;7.77;;;;;;;1.78;100.00;96687.81;4949521;28;105235;-62
2023/03/16 02:45:32;;;;;;;8.40;7.37;;;;;;;1.74;100.00;96686.56;4948831;28;105173;-62
2023/03/16 02:48:04;;;;;;;9.40;8.03;;;;;;;1.57;100.00;96683.38;4949324;28;101961;-62
2023/03/16 02:50:31;;;;;;;8.50;7.67;;;;;;;1.60;100.00;96692.69;4949380;28;105437;-62
2023/03/16 02:52:58;;;;;;;10.83;9.23;;;;;;;1.65;100.00;96691.13;4950036;28;102594;-62
2023/03/16 02:55:25;;;;;;;10.00;9.00;;;;;;;1.65;100.00;96695.56;4949242;28;102320;-62
2023/03/16 02:57:52;;;;;;;12.70;8.90;;;;;;;1.62;100.00;96695.94;4949353;28;105346;-62
2023/03/16 03:00:20;;;;;;;9.10;8.20;;;;;;;1.49;100.00;96701.06;4951942;28;102028;-65
2023/03/16 03:02:51;;;;;;;9.43;8.43;;;;;;;1.40;100.00;96694.28;4950798;28;102265;-65
2023/03/16 03:05:19;;;;;;;10.93;8.57;;;;;;;1.47;100.00;96692.53;4948583;28;105841;-65
2023/03/16 03:07:46;;;;;;;8.50;7.70;;;;;;;1.45;100.00;96694.56;4948603;28;101868;-65
2023/03/16 03:10:13;;;;;;;9.10;8.17;;;;;;;1.42;100.00;96700.19;4948989;28;104799;-65
2023/03/16 03:12:41;;;;;;;9.63;8.30;;;;;;;1.43;100.00;96691.31;4948403;28;105729;-65
2023/03/16 03:15:10;;;;;;;9.37;8.20;;;;;;;1.34;100.00;96697.66;4949178;28;101855;-65
2023/03/16 03:17:47;;;;;;;9.20;8.30;;;;;;;1.45;100.00;96705.03;4949228;28;104971;-65
2023/03/16 03:20:17;;;;;;;9.20;8.30;;;;;;;1.41;100.00;96703.78;4951934;28;105829;-65
2023/03/16 03:22:45;;;;;;;9.77;7.87;;;;;;;1.26;100.00;96690.72;4948795;28;105531;-62
2023/03/16 03:25:14;;;;;;;8.73;7.60;;;;;;;1.10;100.00;96693.56;4948675;28;102584;-62
2023/03/16 03:27:42;;;;;;;7.83;7.13;;;;;;;0.96;100.00;96689.19;4949038;28;101858;-63
2023/03/16 03:30:14;;;;;;;9.97;7.83;;;;;;;0.92;100.00;96687.09;4948847;28;104491;-62
2023/03/16 03:32:43;;;;;;;8.60;7.80;;;;;;;1.00;100.00;96689.63;4948141;28;105676;-62
2023/03/16 03:35:12;;;;;;;10.83;8.30;;;;;;;0.95;100.00;96689.38;4949011;28;101918;-62
2023/03/16 03:37:41;;;;;;;8.37;7.53;;;;;;;0.92;100.00;96687.09;4948714;28;104512;-62
2023/03/16 03:40:16;;;;;;;10.07;8.90;;;;;;;1.02;100.00;96688.47;4947984;28;105611;-62
2023/03/16 03:42:47;;;;;;;9.17;8.27;;;;;;;0.96;100.00;96685.75;4952281;28;101772;-62
2023/03/16 03:45:15;;;;;;;10.60;8.17;;;;;;;0.92;100.00;96684.47;4948168;28;105082;-62
2023/03/16 03:47:44;;;;;;;10.03;9.03;;;;;;;0.90;100.00;96694.34;4948687;28;102159;-62
2023/03/16 03:50:17;;;;;;;10.30;8.77;;;;;;;0.74;100.00;96689.31;4948647;28;105172;-62
2023/03/16 03:53:15;;;;;;;9.07;8.17;;;;;;;0.71;100.00;96695.72;4939025;28;104009;-62
2023/03/16 03:56:02;;;;;;;10.23;9.13;;;;;;;0.66;100.00;96692.03;4949857;28;101994;-62
2023/03/16 03:58:29;;;;;;;9.27;8.20;;;;;;;0.72;100.00;96688.69;4948625;28;105375;-62
2023/03/16 04:00:56;;;;;;;10.60;9.17;;;;;;;0.76;100.00;96687.31;4947783;28;105147;-62
2023/03/16 04:03:23;;;;;;;10.43;9.37;;;;;;;0.72;100.00;96686.06;4948007;28;101874;-62
2023/03/16 04:05:50;;;;;;;12.03;9.60;;;;;;;0.53;100.00;96697.91;4951021;28;104827;-63
2023/03/16 04:08:19;;;;;;;11.33;9.87;;;;;;;0.57;100.00;96693.13;4948422;28;102175;-62
2023/03/16 04:10:47;;;;;;;11.03;9.93;;;;;;;0.57;100.00;96693.13;4948177;28;105089;-62
2023/03/16 04:13:14;;;;;;;11.13;10.00;;;;;;;0.62;100.00;96685.53;4947813;28;105335;-62
2023/03/16 04:15:41;;;;;;;11.43;10.23;;;;;;;0.67;100.00;96688.41;4947211;28;102559;-62
2023/03/16 04:18:13;;;;;;;13.13;10.90;;;;;;;0.55;100.00;96682.81;4947513;28;104948;-62
2023/03/16 04:20:41;;;;;;;11.50;10.37;;;;;;;0.53;100.00;96687.44;4946739;28;105960;-62
2023/03/16 04:23:08;;;;;;;12.47;10.87;;;;;;;0.56;100.00;96681.03;4947112;28;102032;-62
2023/03/16 04:25:39;;;;;;;15.00;11.77;;;;;;;0.62;100.00;96681.09;4947281;28;104707;-62
2023/03/16 04:28:07;;;;;;;12.23;10.93;;;;;;;0.66;100.00;96686.78;4950369;28;105097;-62
2023/03/16 04:30:37;;;;;;;14.67;11.83;;;;;;;0.63;100.00;96681.91;4947365;28;104774;-62
2023/03/16 04:33:22;;;;;;;13.50;11.37;;;;;;;0.59;100.00;96685.88;4946585;28;105589;-62
2023/03/16 04:35:51;;;;;;;15.40;11.83;;;;;;;0.59;100.00;96689.31;4946918;28;101768;-62
2023/03/16 04:38:19;;;;;;;12.77;11.37;;;;;;;0.59;100.00;96691.13;4950440;28;104655;-62
2023/03/16 04:40:56;;;;;;;14.23;12.50;;;;;;;0.47;100.00;96692.56;4949933;28;105686;-62
2023/03/16 04:43:27;;;;;;;14.27;11.83;;;;;;;0.36;100.00;96685.16;4950414;28;101827;-62
2023/03/16 04:45:58;;;;;;;15.17;12.47;;;;;;;0.34;100.00;96689.78;4950181;28;104860;-63
2023/03/16 04:48:28;;;;;;;16.23;12.17;;;;;;;0.34;100.00;96684.56;4949629;28;104860;-63
2023/03/16 04:50:55;;;;;;;17.17;12.47;;;;;;;0.20;100.00;96682.72;4953624;28;101955;-62
2023/03/16 04:53:24;;;;;;;15.60;11.33;;;;;;;0.20;100.00;96686.16;4950065;28;104098;-62
2023/03/16 04:55:59;;;;;;;35.40;12.93;;;;;;;0.01;100.00;96704.97;4950788;28;101834;-62
2023/03/16 04:58:27;;;;;;;15.87;11.43;;;;;;;0.08;100.00;96705.91;4950626;28;105559;-63
2023/03/16 05:00:55;;;;;;;44.00;12.90;;;;;;;0.01;100.00;96704.97;4949685;28;103855;-62
2023/03/16 05:03:28;;;;;;;16.23;12.53;;;;;;;-0.05;100.00;96697.03;4951521;28;102003;-65
2023/03/16 05:05:55;;;;;;;19.83;13.73;;;;;;;-0.07;100.00;96704.22;4950376;28;104741;-65
2023/03/16 05:08:23;;;;;;;40.87;14.90;;;;;;;-0.07;100.00;96693.78;4949707;28;105233;-65
2023/03/16 05:10:56;;;;;;;22.77;13.77;;;;;;;-0.10;100.00;96694.94;4953559;28;101963;-63
2023/03/16 05:13:27;;;;;;;53.20;15.37;;;;;;;-0.09;100.00;96691.31;4949791;28;105355;-62
2023/03/16 05:15:57;;;;;;;29.10;14.17;;;;;;;-0.27;100.00;96692.66;4950438;28;102082;-63
2023/03/16 05:18:29;;;;;;;84.43;15.67;;;;;;;-0.40;100.00;96697.66;4950082;28;105316;-63
2023/03/16 05:20:57;;;;;;;62.73;13.67;;;;;;;-0.40;100.00;96697.66;4949798;28;104390;-62
2023/03/16 05:23:28;;;;;;;49.23;15.57;;;;;;;-0.49;100.00;96687.44;4949798;28;101843;-62
2023/03/16 05:26:03;;;;;;;20.47;13.87;;;;;;;-0.45;100.00;96693.94;4949457;28;104847;-62
2023/03/16 05:28:33;;;;;;;94.53;16.93;;;;;;;-0.40;100.00;96695.03;4948997;28;105150;-63
2023/03/16 05:31:04;;;;;;;18.43;13.67;;;;;;;-0.49;100.00;96703.09;4949390;28;101823;-62
2023/03/16 05:33:38;;;;;;;20.70;14.20;;;;;;;-0.33;100.00;96690.72;4952049;28;105401;-62
2023/03/16 05:36:09;;;;;;;18.00;14.03;;;;;;;-0.27;100.00;96692.66;4949866;28;102401;-64
2023/03/16 05:38:38;;;;;;;20.17;15.27;;;;;;;-0.10;100.00;96683.69;4960683;28;104932;-65
2023/03/16 05:41:07;;;;;;;17.63;14.63;;;;;;;-0.09;100.00;96691.31;4956618;28;105186;-63
2023/03/16 05:43:50;;;;;;;19.07;14.53;;;;;;;0.00;100.00;96686.88;4964029;28;102068;-62
2023/03/16 05:46:18;;;;;;;19.90;14.87;;;;;;;0.06;100.00;96689.56;4963203;28;103878;-62
2023/03/16 05:48:45;;;;;;;20.20;15.87;;;;;;;0.11;100.00;96687.22;4947509;28;105303;-62
2023/03/16 05:51:14;;;;;;;19.83;15.23;;;;;;;0.14;100.00;96680.81;4957836;28;101968;-62
2023/03/16 05:53:45;;;;;;;19.27;15.10;;;;;;;0.14;100.00;96675.59;4948612;28;104666;-62
2023/03/16 05:56:20;;;;;;;19.23;15.23;;;;;;;0.21;100.00;96666.84;4965814;28;104089;-62
2023/03/16 05:58:47;;;;;;;20.10;16.33;;;;;;;0.26;100.00;96676.78;4963733;28;105556;-62
2023/03/16 06:01:16;;;;;;;19.43;15.40;;;;;;;0.38;100.00;96677.94;4967529;28;105224;-62
2023/03/16 06:03:44;;;;;;;20.57;15.87;;;;;;;0.36;100.00;96674.72;4947666;28;102397;-62
2023/03/16 06:06:17;;;;;;;19.20;14.87;;;;;;;0.38;100.00;96667.47;4947867;28;104661;-62
2023/03/16 06:08:55;;;;;;;20.80;16.07;;;;;;;0.51;100.00;96670.28;4947369;28;103588;-65
2023/03/16 06:11:24;;;;;;;19.87;15.10;;;;;;;0.68;100.00;96677.78;4949069;28;101885;-65
2023/03/16 06:13:51;;;;;;;21.63;15.93;;;;;;;0.79;100.00;96669.47;4948832;28;105269;-65
2023/03/16 06:16:19;;;;;;;21.90;17.23;;;;;;;0.88;100.00;96664.94;4947856;28;105772;-62
2023/03/16 06:18:46;;;;;;;24.20;17.47;;;;;;;0.94;100.00;96664.97;4951812;28;101935;-62
2023/03/16 06:21:13;;;;;;;24.37;17.27;;;;;;;1.10;100.00;96671.81;4949739;28;102820;-62
2023/03/16 06:23:41;;;;;;;21.10;15.60;;;;;;;1.30;100.00;96670.19;4948868;28;101923;-62
2023/03/16 06:26:09;;;;;;;21.60;15.80;;;;;;;1.34;100.00;96667.03;4948846;28;104745;-62
2023/03/16 06:28:40;;;;;;;23.47;17.00;;;;;;;1.46;100.00;96669.97;4948096;28;105060;-62
2023/03/16 06:31:07;;;;;;;21.33;16.30;;;;;;;1.53;100.00;96663.78;4948851;28;101932;-63
2023/03/16 06:33:37;;;;;;;20.13;15.23;;;;;;;1.59;100.00;96675.34;4949089;28;104946;-62
2023/03/16 06:36:05;;;;;;;22.80;16.73;;;;;;;1.53;100.00;96665.63;4948412;28;105020;-62
2023/03/16 06:38:37;;;;;;;22.73;15.63;;;;;;;1.60;100.00;96667.28;4948853;28;102008;-63
2023/03/16 06:41:20;;;;;;;22.17;15.90;;;;;;;1.81;100.00;96663.84;4951781;28;103720;-63
2023/03/16 06:43:48;;;;;;;20.80;15.20;;;;;;;2.00;100.00;96664.00;4948760;28;101893;-62
2023/03/16 06:46:14;;;;;;;19.27;15.20;;;;;;;2.07;100.00;96659.59;4950273;28;102382;-62
2023/03/16 06:48:43;;;;;;;22.10;16.83;;;;;;;2.24;100.00;96654.88;4948078;28;105778;-62
2023/03/16 06:51:10;;;;;;;19.50;15.87;;;;;;;2.19;100.00;96663.31;4948619;28;102080;-63
2023/03/16 06:53:37;;;;;;;19.43;15.00;;;;;;;2.21;100.00;96663.13;4948761;28;104879;-62
2023/03/16 06:56:04;;;;;;;20.27;15.20;;;;;;;2.30;100.00;96664.63;4948122;28;105290;-62
2023/03/16 06:58:35;;;;;;;22.97;19.13;;;;;;;2.18;100.00;96660.91;4948826;28;102015;-63
2023/03/16 07:01:03;;;;;;;24.47;20.23;;;;;;;2.10;100.00;96658.41;4948341;28;105433;-63
2023/03/16 07:03:30;;;;;;;21.10;17.67;;;;;;;1.76;100.00;96661.78;4951363;28;105884;-62
2023/03/16 07:06:04;;;;;;;20.27;18.13;;;;;;;1.40;100.00;96662.84;4948499;28;105264;-63
2023/03/16 07:08:32;;;;;;;16.60;13.77;;;;;;;1.35;100.00;96668.66;4948003;28;105861;-62
2023/03/16 07:10:58;;;;;;;30.40;14.50;;;;;;;1.48;100.00;96681.09;4948203;28;102135;-62
2023/03/16 07:13:25;;;;;;;21.83;14.00;;;;;;;1.41;100.00;96677.56;4948459;28;105438;-62
2023/03/16 07:15:52;;;;;;;20.90;14.47;;;;;;;1.45;100.00;96681.44;4947735;28;105958;-62
2023/03/16 07:18:21;;;;;;;18.80;14.33;;;;;;;1.22;100.00;96678.19;4948345;28;101976;-63
2023/03/16 07:20:48;;;;;;;41.00;13.47;;;;;;;1.20;100.00;96675.75;4949795;28;102247;-62
2023/03/16 07:23:16;;;;;;;37.90;13.50;;;;;;;1.10;100.00;96674.44;4951252;28;105039;-65
2023/03/16 07:25:44;;;;;;;35.33;14.93;;;;;;;1.21;100.00;96674.75;4948353;28;105018;-64
2023/03/16 07:28:12;;;;;;;53.70;15.50;;;;;;;1.18;100.00;96679.56;4947463;28;104032;-65
2023/03/16 07:30:42;;;;;;;48.17;17.03;;;;;;;1.30;100.00;96681.50;4947530;28;102015;-65
2023/03/16 07:33:10;;;;;;;37.30;17.27;;;;;;;1.41;100.00;96683.63;4947916;28;105295;-65
2023/03/16 07:35:38;;;;;;;43.17;18.60;;;;;;;1.32;100.00;96676.88;4949063;28;102576;-65
2023/03/16 07:38:06;;;;;;;28.03;16.23;;;;;;;1.53;100.00;96673.47;4948214;28;101837;-62
2023/03/16 07:40:34;;;;;;;55.80;16.87;;;;;;;1.59;100.00;96672.72;4947964;28;105207;-62
2023/03/16 07:43:09;;;;;;;44.90;15.50;;;;;;;1.35;100.00;96679.16;4947456;28;105076;-62
2023/03/16 07:45:41;;;;;;;18.73;15.03;;;;;;;1.68;100.00;96675.03;4951546;28;101866;-62
2023/03/16 07:48:08;;;;;;;20.40;15.80;;;;;;;1.75;100.00;96675.88;4947581;28;105008;-62
2023/03/16 07:50:49;;;;;;;35.90;15.47;;;;;;;1.95;100.00;96673.41;4948096;28;101910;-62
2023/03/16 07:53:17;;;;;;;45.50;16.10;;;;;;;1.86;100.00;96677.19;4947595;28;105147;-62
2023/03/16 07:55:49;;;;;;;45.87;15.87;;;;;;;1.68;100.00;96669.78;4947445;28;105831;-62
2023/03/16 07:58:18;;;;;;;47.80;17.57;;;;;;;1.74;100.00;96678.69;4947837;28;102064;-62
2023/03/16 08:00:47;;;;;;;42.17;18.37;;;;;;;1.84;100.00;96687.03;4947969;28;104785;-62
2023/03/16 08:03:14;;;;;;;59.20;18.07;;;;;;;1.72;100.00;96685.94;4946669;28;105343;-62
2023/03/16 08:05:41;;;;;;;49.63;17.20;;;;;;;1.97;100.00;96682.72;4947583;28;102057;-64
2023/03/16 08:08:14;;;;;;;27.10;17.57;;;;;;;2.33;100.00;96687.81;4950734;28;104976;-63
2023/03/16 08:10:42;;;;;;;22.43;17.73;;;;;;;2.40;100.00;96692.13;4947565;28;102107;-63
2023/03/16 08:13:16;;;;;;;30.57;17.67;;;;;;;2.24;100.00;96689.00;4950966;28;105223;-63
2023/03/16 08:15:46;;;;;;;25.90;16.33;;;;;;;2.15;100.00;96693.56;4952158;28;102483;-63
2023/03/16 08:18:25;;;;;;;21.20;16.00;;;;;;;2.32;100.00;96697.53;4951138;28;101846;-63
2023/03/16 08:20:52;;;;;;;21.20;16.63;;;;;;;2.61;100.00;96694.69;4950868;28;104800;-63
2023/03/16 08:23:20;;;;;;;20.50;17.23;;;;;;;2.93;100.00;96685.34;4950408;28;105934;-63
2023/03/16 08:25:47;;;;;;;20.40;16.43;;;;;;;3.40;100.00;96691.38;4952462;28;101670;-63
2023/03/16 08:28:20;;;;;;;20.23;16.40;;;;;;;3.82;100.00;96684.97;4950731;28;105004;-63
2023/03/16 08:30:49;;;;;;;16.77;14.57;;;;;;;3.91;100.00;96683.75;4955190;28;103131;-63
2023/03/16 08:33:39;;;;;;;14.17;12.60;;;;;;;4.26;100.00;96677.28;4951673;28;103275;-63
2023/03/16 08:36:08;;;;;;;10.07;9.07;;;;;;;4.68;100.00;96676.78;4950271;28;105052;-63
2023/03/16 08:38:35;;;;;;;7.27;6.60;;;;;;;4.86;100.00;96680.38;4951627;28;101922;-63
2023/03/16 08:41:07;;;;;;;8.03;6.63;;;;;;;4.86;100.00;96679.59;4951557;28;105292;-63
2023/03/16 08:43:36;;;;;;;7.23;6.53;;;;;;;5.26;100.00;96679.22;4951055;28;105252;-63
2023/03/16 08:46:05;;;;;;;6.63;6.03;;;;;;;5.61;100.00;96675.19;4951818;28;102032;-63
2023/03/16 08:48:43;;;;;;;6.20;5.60;;;;;;;6.03;100.00;96676.34;4951505;28;103828;-62
2023/03/16 08:51:11;;;;;;;7.00;6.40;;;;;;;6.07;100.00;96670.44;4950970;28;105802;-62
2023/03/16 08:53:38;;;;;;;7.10;6.40;;;;;;;5.91;100.00;96675.41;4956206;28;101876;-63
2023/03/16 08:56:06;;;;;;;5.87;5.27;;;;;;;5.95;100.00;96673.97;4950878;28;105446;-63
2023/03/16 08:58:34;;;;;;;6.67;5.97;;;;;;;6.17;100.00;96680.50;4952799;28;101853;-63
2023/03/16 09:01:04;;;;;;;6.13;5.63;;;;;;;6.27;100.00;96675.56;4951224;28;105760;-63
2023/03/16 09:03:31;;;;;;;5.90;5.40;;;;;;;5.78;100.00;96667.56;4951942;28;102599;-63
2023/03/16 09:06:02;;;;;;;6.00;5.40;;;;;;;5.68;100.00;96672.50;4951285;28;101789;-63
2023/03/16 09:08:29;;;;;;;6.00;5.40;;;;;;;5.90;100.00;96668.53;4951454;28;105159;-63
2023/03/16 09:11:00;;;;;;;5.80;5.30;;;;;;;6.02;100.00;96674.72;4951698;28;102685;-62
2023/03/16 09:13:28;;;;;;;5.40;4.87;;;;;;;6.64;100.00;96677.22;4951128;28;102172;-63
2023/03/16 09:15:55;;;;;;;5.40;4.90;;;;;;;6.95;100.00;96672.63;4954026;28;105598;-63
2023/03/16 09:18:25;;;;;;;5.47;3.67;;;;;;;7.13;100.00;96666.50;4951094;28;101926;-63
2023/03/16 09:20:52;;;;;;;3.97;3.63;;;;;;;6.99;100.00;96670.34;4952463;28;102725;-63
2023/03/16 09:23:19;;;;;;;5.57;4.10;;;;;;;7.19;100.00;96670.94;4949251;28;105264;-63
2023/03/16 09:25:46;;;;;;;4.43;4.03;;;;;;;7.18;100.00;96664.00;4950813;28;102044;-63
2023/03/16 09:28:14;;;;;;;5.20;3.80;;;;;;;7.26;100.00;96663.72;4963869;28;102901;-63
2023/03/16 09:30:41;;;;;;;4.13;3.73;;;;;;;7.40;100.00;96660.66;4969861;28;104006;-63
2023/03/16 09:33:08;;;;;;;3.90;3.50;;;;;;;7.78;100.00;96657.69;4971921;28;101891;-63
2023/03/16 09:35:38;;;;;;;4.07;3.70;;;;;;;7.65;100.00;96660.53;4972856;28;105431;-63
2023/03/16 09:38:06;;;;;;;3.40;3.10;;;;;;;7.93;100.00;96658.88;4971779;28;102010;-63
2023/03/16 09:40:34;;;;;;;3.90;3.50;;;;;;;7.40;100.00;96657.19;4970181;28;105123;-63
2023/03/16 09:43:18;;;;;;;4.03;3.37;;;;;;;7.81;100.00;96657.25;4971039;28;102490;-63
2023/03/16 09:45:54;;;;;;;3.50;3.13;;;;;;;8.07;100.00;96657.63;4970332;28;102177;-63
2023/03/16 09:48:24;;;;;;;3.50;3.13;;;;;;;8.19;100.00;96655.00;4970004;28;105685;-63
2023/03/16 09:50:54;;;;;;;3.33;3.13;;;;;;;8.21;100.00;96645.00;4970825;28;102771;-63
2023/03/16 09:53:25;;;;;;;2.60;2.47;;;;;;;8.35;100.00;96647.22;4971695;28;101886;-63
2023/03/16 09:56:12;;;;;;;3.53;2.90;;;;;;;8.56;100.00;96651.94;4971704;28;102371;-63
2023/03/16 09:59:17;;;;;;;3.50;3.20;;;;;;;8.74;100.00;96656.31;4971193;28;102281;-63
2023/03/16 10:02:13;;;;;;;3.43;3.17;;;;;;;8.46;100.00;96648.28;4969986;28;105104;-63
2023/03/16 10:05:08;;;;;;;4.03;3.73;;;;;;;8.78;100.00;96652.97;4968231;28;102281;-63
2023/03/16 10:07:47;;;;;;;3.67;3.30;;;;;;;9.20;100.00;96640.31;4969528;28;101825;-63
2023/03/16 10:10:58;;;;;;;4.07;3.77;;;;;;;9.03;100.00;96640.25;4971299;28;102826;-63
2023/03/16 10:13:34;;;;;;;4.53;4.13;;;;;;;9.37;100.00;96636.69;4912632;28;105805;-62
2023/03/16 10:16:06;;;;;;;3.63;3.33;;;;;;;8.99;100.00;96640.97;4969719;28;101858;-62
2023/03/16 10:18:39;;;;;;;3.60;3.30;;;;;;;9.28;100.00;96631.97;4971529;28;102426;-63
2023/03/16 10:21:12;;;;;;;4.27;3.87;;;;;;;9.15;100.00;96629.59;4970706;28;102716;-61
2023/03/16 10:23:42;;;;;;;3.87;3.57;;;;;;;9.62;100.00;96633.69;4974424;28;101686;-61
2023/03/16 10:26:14;;;;;;;4.07;3.77;;;;;;;9.69;100.00;96619.22;4970564;28;102530;-61
2023/03/16 10:28:41;;;;;;;4.27;3.90;;;;;;;9.69;100.00;96624.53;4969431;28;102112;-61
2023/03/16 10:31:11;;;;;;;5.03;4.00;;;;;;;9.47;100.00;96633.41;4970875;28;102836;-61
2023/03/16 10:33:39;;;;;;;4.90;4.50;;;;;;;9.36;100.00;96629.75;4970044;28;102512;-61
2023/03/16 10:36:14;;;;;;;4.67;4.27;;;;;;;9.66;100.00;96622.34;4970325;28;101897;-61
2023/03/16 10:38:47;;;;;;;5.53;4.43;;;;;;;9.49;100.00;96623.38;4969374;28;105815;-61
2023/03/16 10:41:24;;;;;;;4.47;4.07;;;;;;;9.69;100.00;96621.06;4968956;28;106304;-61
2023/03/16 10:43:54;;;;;;;5.80;5.00;;;;;;;10.06;100.00;96627.59;4969444;28;101845;-61
2023/03/16 10:46:21;;;;;;;4.93;4.50;;;;;;;9.84;100.00;96619.50;4972157;28;105340;-61
2023/03/16 10:48:58;;;;;;;4.97;4.33;;;;;;;10.15;100.00;96623.50;4970632;28;101906;-61
2023/03/16 10:51:28;;;;;;;4.63;4.23;;;;;;;10.10;100.00;96626.06;4970747;28;102361;-61
2023/03/16 10:54:01;;;;;;;3.67;3.37;;;;;;;10.18;100.00;96629.13;4968611;28;105398;-61
2023/03/16 10:56:35;;;;;;;4.53;4.13;;;;;;;10.31;100.00;96623.47;4969337;28;101938;-61
2023/03/16 10:59:14;;;;;;;4.97;4.47;;;;;;;10.35;100.00;96626.47;4970699;28;102875;-61
2023/03/16 11:01:45;;;;;;;4.27;3.87;;;;;;;10.53;100.00;96620.88;4969722;28;101762;-61
2023/03/16 11:04:15;;;;;;;4.40;4.00;;;;;;;10.47;100.00;96617.34;4968938;28;102169;-61
2023/03/16 11:06:51;;;;;;;3.50;3.20;;;;;;;10.35;100.00;96613.19;4970198;28;101815;-61
2023/03/16 11:09:27;;;;;;;4.47;3.80;;;;;;;10.43;100.00;96610.91;4973180;28;102727;-61
2023/03/16 11:11:54;;;;;;;4.87;4.10;;;;;;;10.73;100.00;96600.69;4968762;28;105298;-61
2023/03/16 11:14:25;;;;;;;4.60;4.20;;;;;;;10.63;100.00;96600.53;4969778;28;102571;-61
2023/03/16 11:17:00;;;;;;;3.83;3.53;;;;;;;10.64;100.00;96590.72;4967657;28;103251;-61
2023/03/16 11:19:30;;;;;;;4.23;3.83;;;;;;;10.71;100.00;96591.34;4965229;28;105152;-61
2023/03/16 11:22:01;;;;;;;5.60;4.37;;;;;;;10.74;100.00;96588.22;4963709;28;105055;-61
2023/03/16 11:24:40;;;;;;;4.03;3.73;;;;;;;11.02;100.00;96580.03;4968715;28;101847;-61
2023/03/16 11:27:16;;;;;;;3.87;3.57;;;;;;;10.62;100.00;96576.84;4966987;28;104898;-61
2023/03/16 11:29:57;;;;;;;3.17;2.77;;;;;;;10.74;96.75;96577.56;4965987;28;105824;-61
2023/03/16 11:32:29;;;;;;;3.10;2.80;;;;;;;11.18;91.85;96566.66;4970687;28;101914;-61
2023/03/16 11:34:56;;;;;;;3.87;3.57;;;;;;;10.94;96.63;96564.50;4962018;28;104992;-61